This is the latest recevied weather packets stored in our database for station/object VA3ECP. If no packets are shown the sender has not sent any weather packets the latest 10 day(s).
| Time | Temp. | Humidity | Pressure | Rain* | Wind** | Luminosity | Snow |
|---|---|---|---|---|---|---|---|
| 1777945534 | 16.67° C | 65% | 1001.4 hPa | 0 mm | - | - | - |
| 1777937120 | 19.44° C | 55% | 1000.9 hPa | 0 mm | - | - | - |
| 1777935927 | 20° C | 53% | 1000.9 hPa | 0 mm | - | - | - |
| 1777933522 | 20.56° C | 53% | 1000.9 hPa | 0 mm | - | - | - |
| 1777932321 | 21.11° C | 52% | 1001 hPa | 0 mm | - | - | - |
| 1777926319 | 22.22° C | 51% | 1001.3 hPa | 0 mm | - | - | - |
| 1777902920 | 14.44° C | 78% | 1004.7 hPa | 0 mm | - | - | - |
| 1777898721 | 9.44° C | 87% | 1004.8 hPa | 0 mm | - | - | - |
| 1777898129 | 9.44° C | 88% | 1004.8 hPa | 0 mm | - | - | - |
| 1777896335 | 8.89° C | 90% | 1004.6 hPa | 0 mm | - | - | - |
| 1777895725 | 8.89° C | 90% | 1004.5 hPa | 0 mm | - | - | - |
| 1777884928 | 7.78° C | 90% | 1004 hPa | 0 mm | - | - | - |
| 1777883722 | 7.78° C | 90% | 1004.2 hPa | 0 mm | - | - | - |
| 1777881322 | 7.22° C | 90% | 1004.4 hPa | 0 mm | - | - | - |
| 1777878927 | 7.22° C | 89% | 1004.7 hPa | 0.51 mm | - | - | - |
| 1777877724 | 7.22° C | 89% | 1005.1 hPa | 0.51 mm | - | - | - |
| 1777873524 | 7.22° C | 80% | 1005.8 hPa | 0 mm | - | - | - |
| 1777870525 | 8.33° C | 76% | 1006.3 hPa | 0 mm | - | - | - |
| 1777863921 | 10.56° C | 63% | 1006.6 hPa | 0 mm | - | - | - |
| 1777857927 | 11.67° C | 51% | 1006.7 hPa | 0 mm | - | - | - |
| 1777852528 | 13.33° C | 42% | 1006.1 hPa | 0 mm | - | - | - |
| 1777848346 | 14.44° C | 35% | 1006 hPa | 0 mm | - | - | - |
| 1777846531 | 15° C | 35% | 1006.2 hPa | 0 mm | - | - | - |
| 1777845922 | 15° C | 35% | 1006.2 hPa | 0 mm | - | - | - |
| 1777842322 | 15.56° C | 34% | 1006.4 hPa | 0 mm | - | - | - |
* Rain latest hour (hover to see other rain measurements)
** Current wind speed in m/s (hover to see current wind gust speed)